KSFF/SFF METAR and TAF weather

Enter ICAO airport designator
Station Type Date Time Source
KSFF METAR 2022/07/01 00:53 UTC NOAA

KSFF 010053Z 00000KT 10SM FEW070 27/06 A3001 RMK AO2 SLP152 T02720056


Station Type Date Time Source
KSFF Decoded METAR 2022/07/01 00:53 UTC NOAA

FELTS FIELD, WA, United States (KSFF) 47-41N 117-19W 609M
Jun 30, 2022 - 08:53 PM EDT / 2022.07.01 0053 UTC
Wind: Calm:0
Visibility: 10 mile(s):0
Sky conditions: mostly clear
Temperature: 81.0 F (27.2 C)
Dew Point: 42.1 F (5.6 C)
Relative Humidity: 25%
Pressure (altimeter): 30.01 in. Hg (1016 hPa)
ob: KSFF 010053Z 00000KT 10SM FEW070 27/06 A3001 RMK AO2 SLP152 T02720056
cycle: 1

Station Type Date Time Source
KSFF TAF 2022/06/30 18:34 UTC NOAA

TAF KSFF 301732Z 3018/0118 VRB03KT P6SM FEW090 SCT250

Example: see airport list